x

Buoy I01 - Eastern Maine Shelf (44034) Wave Buoy

8:04 - Thu 29th Jun 2017 All times are EDT. -4 hours from GMT.

  • Sig Wave height 1.6ft
  • Peak Period 5s
  • Wind
    4mph, 7mph gusts
  • Sea Temp 49°f
  • Air Temp 55°f
  • Sea Pressure 1018.3mb
  • Buoy I01 - Eastern Maine Shelf
  • Buoy I01 - Eastern Maine Shelf

More Historic Weather Station data

Upgrade to MSW Pro to gain access to the past 30 days of data for over 8000 Wavebouys and Weather Stations around the globe.

Join Pro

Comparision Forecast

View Surf forecast
   
jeu. 06/29 8:04 1.6ft 5s 4 7 mph 1018.3mb 49f 55f
7:04 1.6ft 5s 4 7 mph 1018mb 49f 54f
6:04 1.6ft 5s 9 9 mph 1017.6mb 49f 54f
5:04 1.6ft 4s 7 9 mph 1017mb 50f 53f
4:04 1.3ft 5s 7 7 mph 1016.8mb 49f 52f
3:04 2ft 4s 9 9 mph 1016.2mb 48f 52f
1:04 1.6ft 5s 9 9 mph 1016.2mb 48f 53f
12:04 2ft 5s 11 11 mph 1016.2mb 48f 53f
mer. 06/28 11:04 2ft 5s 7 7 mph 1016.4mb 48f 53f
10:04 2ft 5s 7 9 mph 1016.2mb 48f 54f
9:04 2ft 5s 4 7 mph 1015.4mb 49f 54f
8:04 2ft 5s 11 13 mph 1015.2mb 48f 53f
7:04 2ft 4s 9 9 mph 1014.5mb 48f 52f
6:04 2.5ft 5s 11 11 mph 1014.3mb 49f 54f
5:04 2.5ft 5s 11 11 mph 1014.5mb 48f 53f
4:04 2.5ft 4s 16 18 mph 1013.9mb 49f 54f
3:04 1.6ft 5s 18 20 mph 1013.4mb 49f 55f
2:04 1.6ft 8s 13 13 mph 1013.2mb 50f 54f
1:04 1.6ft 6s 11 13 mph 1013mb 50f 54f
12:04 1.6ft 6s 9 9 mph 1013.3mb 50f 53f
9:04 2ft 5s 9 11 mph 1013mb 49f 52f
8:04 2ft 6s 7 9 mph 1013.1mb 49f 53f
7:04 2.5ft 6s 7 7 mph 1012.8mb 49f 54f
6:04 2.5ft 5s 4 4 mph 1012.6mb 49f 51f
5:04 2.5ft 6s 4 7 mph 1012.5mb 49f 51f
4:04 2.5ft 8s 4 7 mph 1011.9mb 49f 51f
3:04 2ft 8s 7 9 mph 1011.7mb 49f 52f
2:04 2ft 8s 7 9 mph 1011.9mb 49f 52f
1:04 2.5ft 6s 11 13 mph 1013mb 50f 53f
12:04 2ft 4s 7 9 mph 1013.7mb 50f 52f
mar. 06/27 11:04 2ft 8s 4 7 mph 1013.8mb 50f 53f
10:04 2ft 8s 9 11 mph 1014.3mb 51f 54f
9:04 2ft 8s 9 11 mph 1013.9mb 50f 53f
8:04 2ft 5s 11 13 mph 1013.8mb 51f 54f
7:04 2.5ft 5s 11 11 mph 1013.8mb 49f 54f
6:04 2ft 8s 11 13 mph 1013.9mb 50f 54f
5:04 2ft 6s 11 13 mph 1013.6mb 51f 55f
4:04 1.6ft 8s 7 9 mph 1014.1mb 52f 55f
3:04 1.6ft 6s 7 7 mph 1014.8mb 51f 53f
2:04 2ft 6s 11 11 mph 1015.1mb 51f 54f
1:04 1.6ft 8s 7 7 mph 1015.6mb 51f 53f
12:04 1.6ft 8s 7 7 mph 1015.6mb 50f 53f
11:04 1.6ft 6s 7 7 mph 1015.9mb 49f 52f
10:04 2ft 8s 7 9 mph 1015.7mb 49f 52f
9:04 2ft 8s 7 9 mph 1016.1mb 49f 52f
8:04 1.6ft 8s 7 9 mph 1015.7mb 49f 52f
7:04 2ft 8s 7 7 mph 1015.7mb 49f 52f
6:04 1.6ft 6s 7 7 mph 1015.4mb 49f 53f
5:04 1.6ft 8s 4 7 mph 1014.9mb 49f 52f
4:04 2ft 8s 2 4 mph 1014.7mb 49f 51f
3:04 2ft 8s 2 4 mph 1014.3mb 49f 52f
2:04 2ft 8s 2 2 mph 1014.1mb 50f 54f
1:04 2ft 8s 4 4 mph 1014.3mb 50f 53f
12:04 2.5ft 8s 9 9 mph 1014.4mb 50f 53f
lun. 06/26 11:04 2.5ft 8s 9 11 mph 1014.5mb 50f 54f
10:04 2.5ft 6s 7 7 mph 1014.6mb 50f 53f
9:04 2.5ft 6s 11 11 mph 1014.3mb 50f 55f
8:04 2.5ft 8s 9 11 mph 1014mb 49f 55f
7:04 2.5ft 8s 9 11 mph 1013.2mb 50f 55f
6:04 2.5ft 8s 11 13 mph 1012.7mb 50f 55f
5:04 2.5ft 8s 11 13 mph 1012.4mb 50f 55f
4:04 2.5ft 6s 11 11 mph 1012.2mb 51f 55f
3:04 2.5ft 6s 16 18 mph 1012.1mb 51f 56f
2:04 2.5ft 8s 13 16 mph 1011.5mb 50f 55f
1:04 2.5ft 8s 9 11 mph 1011.4mb 50f 56f
12:04 2.5ft 8s 9 9 mph 1011.5mb 49f 54f
11:04 2.5ft 8s 9 9 mph 1011.6mb 50f 53f
10:04 2.5ft 8s 4 7 mph 1011.5mb 50f 54f
9:04 2.5ft 8s 4 7 mph 1011.8mb 50f 53f
8:04 2.5ft 8s 4 4 mph 1011.8mb 49f 54f
7:04 2.5ft 8s 7 9 mph 1011.8mb 49f 55f
6:04 2.5ft 5s 4 7 mph 1011.3mb 49f 53f
5:04 2.5ft 6s 7 7 mph 1011.1mb 50f 52f
4:04 2.5ft 6s 9 11 mph 1010.2mb 50f 53f
3:04 2.5ft 6s 7 9 mph 1010mb 50f 53f
2:04 3ft 8s 4 7 mph 1010.4mb 50f 55f
1:04  -   -  4 7 mph 1009.9mb 50f 56f
12:04 3ft 8s 9 9 mph 1010.5mb 50f 55f
dim. 06/25 11:04 3.5ft 8s 7 7 mph 1010.7mb 50f 54f
10:04 4ft 8s 7 11 mph 1011.3mb 50f 55f
9:04 4ft 8s 9 11 mph 1011.4mb 51f 56f
8:04 3ft 8s 9 11 mph 1010.7mb 51f 55f
7:04 4.5ft 11s 11 11 mph 1010.5mb 51f 56f
6:04 3.5ft 11s 9 11 mph 1010.1mb 51f 56f
5:04 3.5ft 11s 11 13 mph 1010.4mb 51f 55f
4:04 4ft 8s 9 11 mph 1010.7mb 51f 55f
3:04 4.5ft 11s 9 11 mph 1011mb 51f 55f